Boulder, Illinois
Current Conditions -  °F | °C
As of 4:15 AM on Saturday 22 Nov 2014 (Local Time) from KENL Reporting Station
Scattered Clouds Scattered Clouds  
Wind Chill: 38°   Ceiling: Unl
Heat Index: 44°   Visibility: 10mi
Dew Point: 35°   Wind: 12mph
Humidity: 70%   Direction: 170°S
Pressure: 30.16"   Gusts: NA
Location:  38.5905°N, 89.3709°W
Report Text: KENL 221015Z AUTO 17010KT 10SM SCT090 07/01 A3016 RMK AO2 T00650014
Loading
Personal Weather Stations






























Interactive Weather Map New forecast layout! Learn more

10-Day Weather Forecast

Advertisements
Track Severe Weather on mobile